createdAt,value
2023-05-09T00:00:44.826Z,100807.53
2023-05-09T00:03:51.720Z,100804.45
2023-05-09T00:06:54.647Z,100799.42
2023-05-09T00:09:57.724Z,100795.64
2023-05-09T00:13:01.084Z,100796.41
2023-05-09T00:16:04.371Z,100795.74
2023-05-09T00:19:07.613Z,100793.25
2023-05-09T00:22:12.951Z,100786.14
2023-05-09T00:25:15.930Z,100784.11
2023-05-09T00:28:20.097Z,100785.55
2023-05-09T00:31:22.992Z,100786.94
2023-05-09T00:34:25.660Z,100784.16
2023-05-09T00:37:30.672Z,100785.73
2023-05-09T00:40:33.552Z,100779.00
2023-05-09T00:43:36.212Z,100778.26
2023-05-09T00:46:40.109Z,100776.79
2023-05-09T00:49:43.083Z,100776.95
2023-05-09T00:52:45.739Z,100774.11
2023-05-09T00:55:48.819Z,100771.34
2023-05-09T00:58:52.200Z,100774.45
2023-05-09T01:01:54.794Z,100767.46
2023-05-09T01:04:58.578Z,100773.25
2023-05-09T01:08:10.724Z,100768.96
2023-05-09T01:11:47.788Z,100759.91
2023-05-09T01:15:12.739Z,100765.50
2023-05-09T01:18:26.277Z,100764.21
2023-05-09T01:21:32.407Z,100760.98
2023-05-09T01:24:54.767Z,100765.11
2023-05-09T01:28:17.006Z,100758.59
2023-05-09T01:31:20.170Z,100759.75
2023-05-09T01:34:26.800Z,100757.13
2023-05-09T01:37:32.114Z,100757.69
2023-05-09T01:40:35.994Z,100752.59
2023-05-09T01:43:40.594Z,100752.48
2023-05-09T01:46:45.073Z,100756.10
2023-05-09T01:49:48.293Z,100755.09
2023-05-09T01:52:55.080Z,100751.41
2023-05-09T01:55:59.444Z,100746.06
2023-05-09T01:59:02.833Z,100742.89
2023-05-09T02:02:07.862Z,100741.10
2023-05-09T02:05:12.360Z,100739.03
2023-05-09T02:08:15.644Z,100737.16
2023-05-09T02:11:18.297Z,100727.02
2023-05-09T02:14:20.931Z,100726.30
2023-05-09T02:17:23.513Z,100723.15
2023-05-09T02:20:26.297Z,100719.86
2023-05-09T02:23:29.062Z,100718.31
2023-05-09T02:26:31.938Z,100717.53
2023-05-09T02:29:40.581Z,100713.02
2023-05-09T02:32:45.402Z,100707.98
2023-05-09T02:35:48.865Z,100707.11
2023-05-09T02:38:51.607Z,100704.18
2023-05-09T02:41:54.164Z,100705.88
2023-05-09T02:44:56.832Z,100703.33
2023-05-09T02:47:59.829Z,100703.78
2023-05-09T02:51:02.771Z,100699.48
2023-05-09T02:54:06.474Z,100698.45
2023-05-09T02:57:09.160Z,100698.94
2023-05-09T03:00:12.411Z,100694.80
2023-05-09T03:03:15.552Z,100693.85
2023-05-09T03:06:18.349Z,100696.59
2023-05-09T03:09:21.115Z,100699.27
2023-05-09T03:12:24.088Z,100696.20
2023-05-09T03:15:26.929Z,100702.44
2023-05-09T03:18:29.524Z,100698.71
2023-05-09T03:21:32.210Z,100694.23
2023-05-09T03:24:34.852Z,100698.20
2023-05-09T03:27:37.426Z,100694.95
2023-05-09T03:30:40.000Z,100697.45
2023-05-09T03:33:42.935Z,100693.27
2023-05-09T03:36:45.449Z,100691.02
2023-05-09T03:39:48.087Z,100690.63
2023-05-09T03:42:50.610Z,100690.67
2023-05-09T03:45:53.217Z,100690.89
2023-05-09T03:48:55.974Z,100694.08
2023-05-09T03:51:58.911Z,100693.26
2023-05-09T03:55:01.534Z,100680.93
2023-05-09T03:58:04.285Z,100698.58
2023-05-09T04:01:06.952Z,100702.98
2023-05-09T04:04:09.835Z,100701.59
2023-05-09T04:07:12.790Z,100702.50
2023-05-09T04:10:15.554Z,100695.19
2023-05-09T04:13:18.250Z,100694.00
2023-05-09T04:16:21.049Z,100694.09
2023-05-09T04:19:23.855Z,100695.42
2023-05-09T04:22:26.451Z,100695.36
2023-05-09T04:25:29.595Z,100693.21
2023-05-09T04:28:32.171Z,100692.16
2023-05-09T04:31:35.306Z,100691.73
2023-05-09T04:34:38.109Z,100695.34
2023-05-09T04:37:40.767Z,100696.11
2023-05-09T04:40:43.272Z,100698.63
2023-05-09T04:43:46.107Z,100700.33
2023-05-09T04:46:50.708Z,100697.11
2023-05-09T04:49:53.272Z,100699.00
2023-05-09T04:52:55.936Z,100705.28
2023-05-09T04:55:58.513Z,100701.89
2023-05-09T04:59:01.174Z,100699.56
2023-05-09T05:02:03.766Z,100696.49
2023-05-09T05:05:12.054Z,100693.27
2023-05-09T05:08:15.200Z,100690.72
2023-05-09T05:11:21.854Z,100695.55
2023-05-09T05:14:24.582Z,100695.88
2023-05-09T05:17:29.676Z,100696.73
2023-05-09T05:20:32.659Z,100698.56
2023-05-09T05:23:35.385Z,100697.23
2023-05-09T05:26:38.042Z,100696.98
2023-05-09T05:29:40.713Z,100698.09
2023-05-09T05:32:44.154Z,100700.05
2023-05-09T05:35:46.857Z,100693.59
2023-05-09T05:38:49.535Z,100694.30
2023-05-09T05:41:52.954Z,100692.90
2023-05-09T05:44:55.803Z,100689.61
2023-05-09T05:47:58.484Z,100700.48
2023-05-09T05:51:01.197Z,100695.14
2023-05-09T05:54:04.128Z,100692.42
2023-05-09T05:57:08.284Z,100689.13
2023-05-09T06:00:11.865Z,100691.30
2023-05-09T06:03:14.701Z,100695.05
2023-05-09T06:06:17.508Z,100685.98
2023-05-09T06:09:20.031Z,100689.38
2023-05-09T06:12:22.568Z,100690.10
2023-05-09T06:15:25.148Z,100684.77
2023-05-09T06:18:28.058Z,100687.36
2023-05-09T06:21:30.625Z,100688.13
2023-05-09T06:24:36.272Z,100691.52
2023-05-09T06:27:39.342Z,100686.86
2023-05-09T06:30:41.852Z,100681.58
2023-05-09T06:33:44.452Z,100675.37
2023-05-09T06:36:47.229Z,100680.72
2023-05-09T06:39:51.132Z,100680.81
2023-05-09T06:42:53.759Z,100675.52
2023-05-09T06:45:56.294Z,100675.09
2023-05-09T06:49:01.791Z,100675.91
2023-05-09T06:52:04.555Z,100665.95
2023-05-09T06:55:08.333Z,100663.51
2023-05-09T06:58:12.230Z,100661.67
2023-05-09T07:01:14.781Z,100657.13
2023-05-09T07:04:17.361Z,100655.29
2023-05-09T07:07:19.917Z,100652.74
2023-05-09T07:10:22.570Z,100643.98
2023-05-09T07:13:25.377Z,100639.68
2023-05-09T07:16:29.570Z,100635.23
2023-05-09T07:19:32.226Z,100637.58
2023-05-09T07:22:36.978Z,100625.78
2023-05-09T07:25:40.457Z,100622.20
2023-05-09T07:28:43.103Z,100620.82
2023-05-09T07:31:46.185Z,100617.34
2023-05-09T07:34:48.761Z,100618.83
2023-05-09T07:37:51.376Z,100613.23
2023-05-09T07:40:53.932Z,100611.74
2023-05-09T07:43:56.801Z,100613.02
2023-05-09T07:46:59.989Z,100601.02
2023-05-09T07:50:02.750Z,100592.88
2023-05-09T07:53:05.411Z,100596.42
2023-05-09T07:56:08.076Z,100587.54
2023-05-09T07:59:10.812Z,100583.84
2023-05-09T08:02:13.423Z,100582.95
2023-05-09T08:05:16.507Z,100588.74
2023-05-09T08:08:19.347Z,100580.39
2023-05-09T08:11:22.058Z,100581.27
2023-05-09T08:14:24.691Z,100576.59
2023-05-09T08:17:27.320Z,100569.95
2023-05-09T08:20:31.882Z,100570.25
2023-05-09T08:23:34.812Z,100570.23
2023-05-09T08:26:37.501Z,100561.48
2023-05-09T08:29:40.774Z,100557.52
2023-05-09T08:32:43.289Z,100554.30
2023-05-09T08:35:50.511Z,100543.11
2023-05-09T08:38:53.298Z,100544.14
2023-05-09T08:42:00.244Z,100543.47
2023-05-09T08:45:16.316Z,100538.61
2023-05-09T08:48:19.598Z,100535.05
2023-05-09T08:51:22.416Z,100530.71
2023-05-09T08:54:27.499Z,100534.39
2023-05-09T08:57:32.958Z,100536.11
2023-05-09T09:00:38.973Z,100529.08
2023-05-09T09:03:47.805Z,100524.95
2023-05-09T09:06:53.035Z,100514.96
2023-05-09T09:09:57.788Z,100517.77
2023-05-09T09:13:03.519Z,100519.12
2023-05-09T09:16:09.016Z,100511.09
2023-05-09T09:19:13.765Z,100505.63
2023-05-09T09:22:19.398Z,100502.16
2023-05-09T09:25:22.060Z,100501.87
2023-05-09T09:28:24.727Z,100502.38
2023-05-09T09:31:31.737Z,100498.33
2023-05-09T09:34:34.471Z,100499.86
2023-05-09T09:37:43.649Z,100501.87
2023-05-09T09:40:52.316Z,100500.98
2023-05-09T09:43:58.189Z,100501.65
2023-05-09T09:47:01.704Z,100496.23
2023-05-09T09:50:15.477Z,100493.10
2023-05-09T09:53:20.844Z,100479.55
2023-05-09T09:56:39.170Z,100473.44
2023-05-09T09:59:42.750Z,100478.70
2023-05-09T10:02:56.483Z,100463.25
2023-05-09T10:06:02.532Z,100457.77
2023-05-09T10:09:05.179Z,100452.75
2023-05-09T10:12:08.667Z,100446.73
2023-05-09T10:15:12.961Z,100450.27
2023-05-09T10:18:20.335Z,100447.98
2023-05-09T10:21:22.989Z,100450.20
2023-05-09T10:24:35.540Z,100438.70
2023-05-09T10:27:41.528Z,100426.50
2023-05-09T10:30:59.978Z,100436.20
2023-05-09T10:34:09.902Z,100430.52
2023-05-09T10:37:12.705Z,100434.70
2023-05-09T10:40:15.786Z,100431.02
2023-05-09T10:43:18.634Z,100424.48
2023-05-09T10:46:23.626Z,100416.85
2023-05-09T10:49:26.906Z,100415.65
2023-05-09T10:52:35.881Z,100410.00
2023-05-09T10:55:48.608Z,100402.80
2023-05-09T10:58:51.254Z,100390.30
2023-05-09T11:02:01.077Z,100394.77
2023-05-09T11:05:18.285Z,100383.65
2023-05-09T11:08:23.379Z,100382.80
2023-05-09T11:11:26.100Z,100375.49
2023-05-09T11:14:41.124Z,100376.80
2023-05-09T11:17:43.778Z,100367.58
2023-05-09T11:20:49.138Z,100361.55
2023-05-09T11:23:54.448Z,100360.99
2023-05-09T11:26:57.927Z,100352.48
2023-05-09T11:30:05.572Z,100349.65
2023-05-09T11:33:27.337Z,100340.42
2023-05-09T11:36:33.706Z,100336.44
2023-05-09T11:39:55.583Z,100330.67
2023-05-09T11:42:59.448Z,100325.28
2023-05-09T11:46:03.507Z,100316.34
2023-05-09T11:49:10.627Z,100320.23
2023-05-09T11:52:14.524Z,100315.59
2023-05-09T11:55:19.888Z,100315.48
2023-05-09T11:58:22.532Z,100311.41
2023-05-09T12:01:25.780Z,100295.00
2023-05-09T12:04:30.486Z,100295.33
2023-05-09T12:07:33.050Z,100285.71
2023-05-09T12:10:40.323Z,100283.08
2023-05-09T12:13:48.556Z,100268.55
2023-05-09T12:16:51.160Z,100263.29
2023-05-09T12:19:54.232Z,100260.70
2023-05-09T12:22:56.913Z,100263.37
2023-05-09T12:25:59.583Z,100257.30
2023-05-09T12:29:02.262Z,100258.23
2023-05-09T12:32:05.419Z,100256.41
2023-05-09T12:35:10.770Z,100248.64
2023-05-09T12:38:23.441Z,100249.27
2023-05-09T12:44:31.882Z,100244.63
2023-05-09T12:47:34.541Z,100234.33
2023-05-09T12:50:37.187Z,100224.96
2023-05-09T12:53:41.762Z,100231.54
2023-05-09T12:56:45.362Z,100221.23
2023-05-09T12:59:48.336Z,100218.02
2023-05-09T13:02:53.145Z,100220.73
2023-05-09T13:06:01.160Z,100210.01
2023-05-09T13:09:08.120Z,100209.73
2023-05-09T13:12:10.821Z,100205.36
2023-05-09T13:15:14.473Z,100199.34
2023-05-09T13:18:17.759Z,100194.16
2023-05-09T13:21:21.230Z,100184.05
2023-05-09T13:24:23.982Z,100177.58
2023-05-09T13:27:28.082Z,100174.59
2023-05-09T13:30:31.252Z,100167.82
2023-05-09T13:33:34.031Z,100162.71
2023-05-09T13:36:36.770Z,100168.28
2023-05-09T13:39:39.562Z,100154.44
2023-05-09T13:42:42.378Z,100144.51
2023-05-09T13:45:45.004Z,100135.48
2023-05-09T13:48:48.072Z,100130.96
2023-05-09T13:51:50.938Z,100129.67
2023-05-09T13:54:53.618Z,100121.50
2023-05-09T13:57:56.474Z,100120.42
2023-05-09T14:00:59.155Z,100111.93
2023-05-09T14:04:02.788Z,100109.41
2023-05-09T14:07:05.506Z,100100.55
2023-05-09T14:10:11.969Z,100101.26
2023-05-09T14:13:15.916Z,100100.02
2023-05-09T14:16:22.339Z,100088.17
2023-05-09T14:19:30.160Z,100087.02
2023-05-09T14:22:32.862Z,100078.30
2023-05-09T14:25:35.505Z,100080.54
2023-05-09T14:28:38.374Z,100086.38
2023-05-09T14:31:41.075Z,100081.09
2023-05-09T14:34:44.072Z,100077.77
2023-05-09T14:37:47.606Z,100075.69
2023-05-09T14:40:50.171Z,100071.22
2023-05-09T14:43:52.839Z,100064.75
2023-05-09T14:46:55.772Z,100058.27
2023-05-09T14:49:58.772Z,100057.76
2023-05-09T14:53:02.255Z,100057.94
2023-05-09T14:56:05.777Z,100048.98
2023-05-09T14:59:09.637Z,100047.46
2023-05-09T15:02:12.627Z,100038.42
2023-05-09T15:05:15.995Z,100041.76
2023-05-09T15:08:19.065Z,100044.34
2023-05-09T15:11:22.134Z,100042.91
2023-05-09T15:14:24.849Z,100034.44
2023-05-09T15:17:27.566Z,100028.41
2023-05-09T15:20:30.130Z,100023.86
2023-05-09T15:23:32.911Z,100022.06
2023-05-09T15:26:35.766Z,100008.92
2023-05-09T15:29:38.840Z,100011.45
2023-05-09T15:32:41.696Z,100008.01
2023-05-09T15:35:45.295Z,100012.98
2023-05-09T15:38:49.719Z,100007.11
2023-05-09T15:41:52.753Z,99998.20
2023-05-09T15:44:55.354Z,99994.39
2023-05-09T15:47:59.087Z,99980.98
2023-05-09T15:51:02.821Z,99978.33
2023-05-09T15:54:05.465Z,99977.14
2023-05-09T15:57:08.353Z,99971.87
2023-05-09T16:00:12.459Z,99968.73
2023-05-09T16:03:15.439Z,99971.98
2023-05-09T16:06:18.402Z,99965.83
2023-05-09T16:09:21.558Z,99961.98
2023-05-09T16:12:25.238Z,99955.08
2023-05-09T16:15:27.829Z,99954.23
2023-05-09T16:18:30.394Z,99940.79
2023-05-09T16:21:33.422Z,99938.33
2023-05-09T16:24:37.395Z,99936.59
2023-05-09T16:27:40.143Z,99935.16
2023-05-09T16:30:42.696Z,99929.64
2023-05-09T16:33:47.142Z,99921.94
2023-05-09T16:36:49.965Z,99924.59
2023-05-09T16:39:52.472Z,99915.64
2023-05-09T16:42:55.087Z,99907.80
2023-05-09T16:45:57.770Z,99904.44
2023-05-09T16:49:00.418Z,99898.25
2023-05-09T16:52:03.008Z,99896.17
2023-05-09T16:55:06.172Z,99902.75
2023-05-09T16:58:08.760Z,99898.17
2023-05-09T17:01:11.790Z,99893.31
2023-05-09T17:04:14.820Z,99884.98
2023-05-09T17:07:17.380Z,99884.02
2023-05-09T17:10:20.039Z,99879.39
2023-05-09T17:13:22.787Z,99876.22
2023-05-09T17:16:25.616Z,99874.52
2023-05-09T17:19:28.301Z,99873.83
2023-05-09T17:22:30.968Z,99873.44
2023-05-09T17:25:33.525Z,99866.55
2023-05-09T17:28:36.147Z,99869.70
2023-05-09T17:31:38.775Z,99866.53
2023-05-09T17:34:41.744Z,99867.83
2023-05-09T17:37:44.498Z,99868.94
2023-05-09T17:40:47.579Z,99864.94
2023-05-09T17:43:52.183Z,99869.98
2023-05-09T17:46:54.947Z,99870.52
2023-05-09T17:49:57.518Z,99874.17
2023-05-09T17:53:00.545Z,99879.14
2023-05-09T17:56:03.234Z,99875.72
2023-05-09T17:59:06.646Z,99877.95
2023-05-09T18:02:09.290Z,99880.87
2023-05-09T18:05:11.890Z,99880.86
2023-05-09T18:08:14.523Z,99878.36
2023-05-09T18:11:17.149Z,99873.80
2023-05-09T18:14:19.727Z,99875.66
2023-05-09T18:17:22.367Z,99870.30
2023-05-09T18:20:25.078Z,99873.02
2023-05-09T18:23:31.749Z,99875.28
2023-05-09T18:26:34.280Z,99874.84
2023-05-09T18:29:38.097Z,99875.56
2023-05-09T18:32:41.227Z,99873.02
2023-05-09T18:35:43.917Z,99875.88
2023-05-09T18:38:47.933Z,99880.61
2023-05-09T18:41:50.797Z,99877.58
2023-05-09T18:44:53.672Z,99877.10
2023-05-09T18:47:56.249Z,99880.43
2023-05-09T18:50:59.103Z,99883.88
2023-05-09T18:54:02.114Z,99882.64
2023-05-09T18:57:04.740Z,99882.85
2023-05-09T19:00:08.329Z,99884.96
2023-05-09T19:03:10.962Z,99882.13
2023-05-09T19:06:14.791Z,99881.13
2023-05-09T19:09:18.162Z,99883.43
2023-05-09T19:12:20.932Z,99882.48
2023-05-09T19:15:23.593Z,99882.04
2023-05-09T19:18:26.340Z,99886.23
2023-05-09T19:21:29.832Z,99883.45
2023-05-09T19:24:53.190Z,99881.64
2023-05-09T19:27:56.369Z,99878.02
2023-05-09T19:30:59.151Z,99879.16
2023-05-09T19:34:02.003Z,99874.21
2023-05-09T19:37:04.564Z,99875.14
2023-05-09T19:40:13.452Z,99871.85
2023-05-09T19:43:16.787Z,99868.48
2023-05-09T19:46:19.473Z,99869.48
2023-05-09T19:49:22.293Z,99867.34
2023-05-09T19:52:24.947Z,99867.13
2023-05-09T19:55:27.922Z,99861.16
2023-05-09T19:58:30.425Z,99860.05
2023-05-09T20:01:33.094Z,99855.47
2023-05-09T20:04:36.537Z,99860.46
2023-05-09T20:10:57.449Z,99854.94
2023-05-09T20:14:00.112Z,99851.33
2023-05-09T20:17:04.388Z,99846.45
2023-05-09T20:20:07.685Z,99844.89
2023-05-09T20:23:10.751Z,99844.28
2023-05-09T20:26:13.410Z,99844.13
2023-05-09T20:29:16.277Z,99841.38
2023-05-09T20:32:18.938Z,99841.19
2023-05-09T20:35:21.711Z,99827.81
2023-05-09T20:38:24.376Z,99829.37
2023-05-09T20:41:49.247Z,99829.15
2023-05-09T20:44:53.038Z,99830.70
2023-05-09T20:47:56.074Z,99824.94
2023-05-09T20:50:58.787Z,99822.12
2023-05-09T20:54:01.441Z,99818.86
2023-05-09T20:57:09.122Z,99817.63
2023-05-09T21:00:12.349Z,99818.86
2023-05-09T21:03:15.179Z,99817.71
2023-05-09T21:06:18.146Z,99821.54
2023-05-09T21:09:20.817Z,99819.53
2023-05-09T21:12:30.852Z,99815.14
2023-05-09T21:15:33.518Z,99806.23
2023-05-09T21:22:32.153Z,99807.27
2023-05-09T21:25:34.815Z,99804.09
2023-05-09T21:28:59.384Z,99803.34
2023-05-09T21:32:02.066Z,99796.25
2023-05-09T21:35:07.407Z,99791.29
2023-05-09T21:38:10.036Z,99789.59
2023-05-09T21:41:12.701Z,99785.61
2023-05-09T21:44:22.530Z,99786.84
2023-05-09T21:47:25.370Z,99789.58
2023-05-09T21:54:27.431Z,99784.33
2023-05-09T21:57:30.086Z,99783.80
2023-05-09T22:00:49.066Z,99783.67
2023-05-09T22:03:51.991Z,99782.27
2023-05-09T22:06:54.764Z,99781.10
2023-05-09T22:13:48.221Z,99772.90
2023-05-09T22:16:50.917Z,99775.20
2023-05-09T22:19:53.742Z,99770.38
2023-05-09T22:22:56.714Z,99766.43
2023-05-09T22:25:59.365Z,99769.66
2023-05-09T22:29:02.133Z,99765.64
2023-05-09T22:32:07.768Z,99761.80
2023-05-09T22:35:10.743Z,99763.70
2023-05-09T22:38:23.531Z,99760.48
2023-05-09T22:41:26.319Z,99754.55
2023-05-09T22:44:35.737Z,99753.63
2023-05-09T22:47:38.306Z,99750.59
2023-05-09T22:50:41.223Z,99744.35
2023-05-09T22:53:43.811Z,99741.64
2023-05-09T22:56:47.501Z,99739.63
2023-05-09T22:59:50.278Z,99738.61
2023-05-09T23:02:52.964Z,99733.65
2023-05-09T23:05:55.905Z,99735.97
2023-05-09T23:08:58.572Z,99732.28
2023-05-09T23:12:01.424Z,99730.58
2023-05-09T23:15:05.841Z,99728.80
2023-05-09T23:18:08.591Z,99730.84
2023-05-09T23:21:11.263Z,99727.70
2023-05-09T23:24:13.846Z,99731.70
2023-05-09T23:27:16.410Z,99731.25
2023-05-09T23:30:19.045Z,99730.99
2023-05-09T23:33:21.655Z,99732.45
2023-05-09T23:36:24.193Z,99725.93
2023-05-09T23:39:26.701Z,99723.52
2023-05-09T23:42:29.322Z,99720.83
2023-05-09T23:45:32.300Z,99719.25
2023-05-09T23:48:34.957Z,99714.44
2023-05-09T23:51:37.831Z,99711.94
2023-05-09T23:54:40.590Z,99708.13
2023-05-09T23:57:43.246Z,99709.33
